createdAt,value
2018-11-25T00:05:10.038Z,10.10
2018-11-25T00:15:14.631Z,7.60
2018-11-25T00:25:19.367Z,8.20
2018-11-25T00:35:24.060Z,8.20
2018-11-25T00:45:28.691Z,9.07
2018-11-25T00:55:34.150Z,7.60
2018-11-25T01:05:38.757Z,7.90
2018-11-25T01:15:43.572Z,6.03
2018-11-25T01:25:50.411Z,6.13
2018-11-25T01:35:55.075Z,14.90
2018-11-25T01:45:59.723Z,16.10
2018-11-25T01:56:04.821Z,14.90
2018-11-25T02:06:09.573Z,16.57
2018-11-25T02:16:14.230Z,11.73
2018-11-25T02:26:19.200Z,11.80
2018-11-25T02:36:24.559Z,11.77
2018-11-25T02:46:29.253Z,9.43
2018-11-25T02:56:33.999Z,11.93
2018-11-25T03:06:38.704Z,8.53
2018-11-25T03:16:43.442Z,10.00
2018-11-25T03:26:48.097Z,7.90
2018-11-25T03:36:52.700Z,10.37
2018-11-25T03:46:57.320Z,9.03
2018-11-25T03:57:02.054Z,8.60
2018-11-25T04:07:07.069Z,7.83
2018-11-25T04:17:11.736Z,8.23
2018-11-25T04:27:16.439Z,8.97
2018-11-25T04:37:21.397Z,8.00
2018-11-25T04:47:25.950Z,7.10
2018-11-25T04:57:32.341Z,7.63
2018-11-25T05:07:37.147Z,7.47
2018-11-25T05:17:41.711Z,7.60
2018-11-25T05:27:46.300Z,7.13
2018-11-25T05:37:50.964Z,6.90
2018-11-25T05:47:55.654Z,6.73
2018-11-25T05:58:00.418Z,6.83
2018-11-25T06:08:05.175Z,6.27
2018-11-25T06:18:09.890Z,6.00
2018-11-25T06:28:14.535Z,6.80
2018-11-25T06:38:19.240Z,6.20
2018-11-25T06:48:23.897Z,5.93
2018-11-25T06:58:28.583Z,5.93
2018-11-25T07:08:33.188Z,5.90
2018-11-25T07:18:38.375Z,6.37
2018-11-25T07:28:42.966Z,6.33
2018-11-25T07:38:47.701Z,6.07
2018-11-25T07:48:52.416Z,5.60
2018-11-25T07:58:57.029Z,6.20
2018-11-25T08:09:01.884Z,5.80
2018-11-25T08:19:07.512Z,5.67
2018-11-25T08:29:12.126Z,5.43
2018-11-25T08:39:16.742Z,5.97
2018-11-25T08:49:21.640Z,5.67
2018-11-25T08:59:26.334Z,4.83
2018-11-25T09:09:31.099Z,5.60
2018-11-25T09:19:35.786Z,5.00
2018-11-25T09:29:40.394Z,5.13
2018-11-25T09:39:45.161Z,5.13
2018-11-25T09:49:49.806Z,4.83
2018-11-25T09:59:54.479Z,5.07
2018-11-25T10:09:59.572Z,7.57
2018-11-25T10:20:04.859Z,5.23
2018-11-25T10:30:27.943Z,9.30
2018-11-25T10:40:33.692Z,20.57
2018-11-25T10:50:38.349Z,16.57
2018-11-25T11:00:48.636Z,15.30
2018-11-25T11:10:53.345Z,16.87
2018-11-25T11:20:58.216Z,14.13
2018-11-25T11:31:02.926Z,14.07
2018-11-25T11:41:08.209Z,13.73
2018-11-25T11:51:12.838Z,11.37
2018-11-25T12:01:17.824Z,9.77
2018-11-25T12:11:22.595Z,10.07
2018-11-25T12:21:27.181Z,9.67
2018-11-25T12:31:31.928Z,11.17
2018-11-25T12:41:36.509Z,8.13
2018-11-25T12:51:41.093Z,9.20
2018-11-25T13:01:45.813Z,6.80
2018-11-25T13:11:52.474Z,10.17
2018-11-25T13:21:56.025Z,6.10
2018-11-25T13:32:03.800Z,10.93
2018-11-25T13:42:09.322Z,9.70
2018-11-25T13:52:13.997Z,10.03
2018-11-25T14:02:19.685Z,10.77
2018-11-25T14:12:24.796Z,13.83
2018-11-25T14:22:29.757Z,11.90
2018-11-25T14:32:35.093Z,14.93
2018-11-25T14:42:40.547Z,13.43
2018-11-25T14:52:47.316Z,8.00
2018-11-25T15:02:58.686Z,10.57
2018-11-25T15:13:04.089Z,8.70
2018-11-25T15:23:12.664Z,9.10
2018-11-25T15:33:17.216Z,9.13
2018-11-25T15:43:23.669Z,9.03
2018-11-25T15:53:28.419Z,7.83
2018-11-25T16:03:33.729Z,11.47
2018-11-25T16:13:39.353Z,12.93
2018-11-25T16:23:45.541Z,14.43
2018-11-25T16:33:50.569Z,11.70
2018-11-25T16:43:57.849Z,13.10
2018-11-25T16:54:03.529Z,10.67
2018-11-25T17:04:08.205Z,7.40
2018-11-25T17:14:12.856Z,10.73
2018-11-25T17:24:18.029Z,14.10
2018-11-25T17:34:22.697Z,10.23
2018-11-25T17:44:27.235Z,9.20
2018-11-25T17:54:32.033Z,11.83
2018-11-25T18:04:36.779Z,13.93
2018-11-25T18:14:41.395Z,9.53
2018-11-25T18:24:45.966Z,8.53
2018-11-25T18:34:50.569Z,7.73
2018-11-25T18:44:55.222Z,8.27
2018-11-25T18:54:57.981Z,6.70
2018-11-25T19:05:02.704Z,10.53
2018-11-25T19:15:10.020Z,8.50
2018-11-25T19:25:17.565Z,6.27
2018-11-25T19:35:23.586Z,6.57
2018-11-25T19:45:29.006Z,6.43
2018-11-25T19:55:33.694Z,4.83
2018-11-25T20:05:38.560Z,4.63
2018-11-25T20:15:43.503Z,4.00
2018-11-25T20:25:48.586Z,4.97
2018-11-25T20:35:54.293Z,4.23
2018-11-25T20:46:04.037Z,4.30
2018-11-25T20:56:08.996Z,4.03
2018-11-25T21:06:13.714Z,3.87
2018-11-25T21:16:18.373Z,3.87
2018-11-25T21:26:23.073Z,3.70
2018-11-25T21:36:27.629Z,5.23
2018-11-25T21:46:32.253Z,4.97
2018-11-25T21:56:36.898Z,7.83
2018-11-25T22:06:41.620Z,9.67
2018-11-25T22:16:46.597Z,8.57
2018-11-25T22:26:53.438Z,6.97
2018-11-25T22:36:58.309Z,9.03
2018-11-25T22:47:07.388Z,6.43
2018-11-25T22:57:12.374Z,7.87
2018-11-25T23:07:17.081Z,4.53
2018-11-25T23:17:22.030Z,4.63
2018-11-25T23:27:27.197Z,5.47
2018-11-25T23:37:32.343Z,5.77
2018-11-25T23:47:37.743Z,5.00
2018-11-25T23:57:42.697Z,3.77
